Mossamedes, Brazil
Current Conditions -  °F | °C
As of 7:00 PM on Monday 20 Oct 2014 (Local Time) from SBGO Reporting Station
Clear Clear  
Wind Chill: 82°   Ceiling: Unl
Heat Index: 82°   Visibility: 6mi
Dew Point: 52°   Wind: 6mph
Humidity: 35%   Direction: 150°SSE
Pressure: 29.94"   Gusts: NA
Location:  16.13°S, 50.21°W
Report Text: SBGO 202200Z 15005KT CAVOK 28/11 Q1014
Loading
Personal Weather Stations






























Interactive Weather Map
Tropical Storm Tracking
New forecast layout! Learn more

10-Day Weather Forecast

Advertisements
Track Severe Weather on mobile